sensor_id;sensor_type;location;lat;lon;timestamp;P1;durP1;ratioP1;P2;durP2;ratioP2
79578;SDS011;69051;52.406;5.280;2023-08-30T00:02:10;8.32;;;3.97;;
79578;SDS011;69051;52.406;5.280;2023-08-30T00:04:37;8.73;;;4.13;;
79578;SDS011;69051;52.406;5.280;2023-08-30T00:07:03;10.00;;;4.25;;
79578;SDS011;69051;52.406;5.280;2023-08-30T00:09:30;7.90;;;3.72;;
79578;SDS011;69051;52.406;5.280;2023-08-30T00:11:56;9.00;;;3.95;;
79578;SDS011;69051;52.406;5.280;2023-08-30T00:14:23;8.95;;;4.03;;
79578;SDS011;69051;52.406;5.280;2023-08-30T00:16:49;9.43;;;4.53;;
79578;SDS011;69051;52.406;5.280;2023-08-30T00:19:15;15.65;;;4.75;;
79578;SDS011;69051;52.406;5.280;2023-08-30T00:21:42;10.98;;;4.95;;
79578;SDS011;69051;52.406;5.280;2023-08-30T00:24:09;11.27;;;5.13;;
79578;SDS011;69051;52.406;5.280;2023-08-30T00:26:36;10.70;;;5.22;;
79578;SDS011;69051;52.406;5.280;2023-08-30T00:29:02;11.18;;;5.40;;
79578;SDS011;69051;52.406;5.280;2023-08-30T00:31:29;9.25;;;5.28;;
79578;SDS011;69051;52.406;5.280;2023-08-30T00:33:55;10.85;;;4.80;;
79578;SDS011;69051;52.406;5.280;2023-08-30T00:36:21;10.82;;;5.18;;
79578;SDS011;69051;52.406;5.280;2023-08-30T00:38:48;9.60;;;5.03;;
79578;SDS011;69051;52.406;5.280;2023-08-30T00:41:15;11.95;;;5.28;;
79578;SDS011;69051;52.406;5.280;2023-08-30T00:43:42;10.18;;;4.97;;
79578;SDS011;69051;52.406;5.280;2023-08-30T00:46:08;11.65;;;5.15;;
79578;SDS011;69051;52.406;5.280;2023-08-30T00:48:35;9.82;;;4.65;;
79578;SDS011;69051;52.406;5.280;2023-08-30T00:51:02;10.68;;;4.95;;
79578;SDS011;69051;52.406;5.280;2023-08-30T00:53:28;11.05;;;4.85;;
79578;SDS011;69051;52.406;5.280;2023-08-30T00:55:55;10.63;;;5.20;;
79578;SDS011;69051;52.406;5.280;2023-08-30T00:58:22;9.65;;;4.32;;
79578;SDS011;69051;52.406;5.280;2023-08-30T01:00:48;9.55;;;4.82;;
79578;SDS011;69051;52.406;5.280;2023-08-30T01:03:16;9.02;;;4.30;;
79578;SDS011;69051;52.406;5.280;2023-08-30T01:05:43;7.40;;;3.55;;
79578;SDS011;69051;52.406;5.280;2023-08-30T01:08:09;9.63;;;4.28;;
79578;SDS011;69051;52.406;5.280;2023-08-30T01:10:41;11.45;;;5.30;;
79578;SDS011;69051;52.406;5.280;2023-08-30T01:13:15;7.82;;;3.90;;
79578;SDS011;69051;52.406;5.280;2023-08-30T01:15:46;9.57;;;4.10;;
79578;SDS011;69051;52.406;5.280;2023-08-30T01:18:15;12.57;;;4.90;;
79578;SDS011;69051;52.406;5.280;2023-08-30T01:20:43;9.52;;;4.00;;
79578;SDS011;69051;52.406;5.280;2023-08-30T01:23:15;10.00;;;3.90;;
79578;SDS011;69051;52.406;5.280;2023-08-30T01:29:11;7.63;;;3.47;;
79578;SDS011;69051;52.406;5.280;2023-08-30T01:31:38;10.40;;;3.75;;
79578;SDS011;69051;52.406;5.280;2023-08-30T01:34:05;9.70;;;4.38;;
79578;SDS011;69051;52.406;5.280;2023-08-30T01:36:31;8.65;;;4.28;;
79578;SDS011;69051;52.406;5.280;2023-08-30T01:38:58;8.77;;;3.28;;
79578;SDS011;69051;52.406;5.280;2023-08-30T01:41:26;8.43;;;3.30;;
79578;SDS011;69051;52.406;5.280;2023-08-30T01:43:53;10.05;;;4.38;;
79578;SDS011;69051;52.406;5.280;2023-08-30T01:46:20;9.05;;;4.03;;
79578;SDS011;69051;52.406;5.280;2023-08-30T01:48:47;7.95;;;3.88;;
79578;SDS011;69051;52.406;5.280;2023-08-30T01:51:14;11.50;;;4.05;;
79578;SDS011;69051;52.406;5.280;2023-08-30T01:53:43;8.60;;;4.60;;
79578;SDS011;69051;52.406;5.280;2023-08-30T01:56:11;10.35;;;4.60;;
79578;SDS011;69051;52.406;5.280;2023-08-30T01:58:37;9.48;;;3.92;;
79578;SDS011;69051;52.406;5.280;2023-08-30T02:01:04;10.05;;;4.90;;
79578;SDS011;69051;52.406;5.280;2023-08-30T02:03:30;10.93;;;4.85;;
79578;SDS011;69051;52.406;5.280;2023-08-30T02:06:02;11.02;;;4.28;;
79578;SDS011;69051;52.406;5.280;2023-08-30T02:09:14;12.60;;;4.60;;
79578;SDS011;69051;52.406;5.280;2023-08-30T02:11:36;10.95;;;5.40;;
79578;SDS011;69051;52.406;5.280;2023-08-30T02:14:04;11.88;;;5.30;;
79578;SDS011;69051;52.406;5.280;2023-08-30T02:16:32;10.77;;;5.20;;
79578;SDS011;69051;52.406;5.280;2023-08-30T02:18:59;9.90;;;5.22;;
79578;SDS011;69051;52.406;5.280;2023-08-30T02:21:26;10.02;;;4.72;;
79578;SDS011;69051;52.406;5.280;2023-08-30T02:23:53;11.02;;;5.05;;
79578;SDS011;69051;52.406;5.280;2023-08-30T02:26:19;11.38;;;4.55;;
79578;SDS011;69051;52.406;5.280;2023-08-30T02:28:46;11.45;;;4.63;;
79578;SDS011;69051;52.406;5.280;2023-08-30T02:31:12;11.85;;;5.53;;
79578;SDS011;69051;52.406;5.280;2023-08-30T02:33:39;11.02;;;4.95;;
79578;SDS011;69051;52.406;5.280;2023-08-30T02:36:05;12.25;;;5.20;;
79578;SDS011;69051;52.406;5.280;2023-08-30T02:38:32;11.25;;;5.60;;
79578;SDS011;69051;52.406;5.280;2023-08-30T02:40:59;13.18;;;5.60;;
79578;SDS011;69051;52.406;5.280;2023-08-30T02:43:25;12.48;;;5.95;;
79578;SDS011;69051;52.406;5.280;2023-08-30T02:45:51;12.32;;;5.97;;
79578;SDS011;69051;52.406;5.280;2023-08-30T02:48:18;14.20;;;6.38;;
79578;SDS011;69051;52.406;5.280;2023-08-30T02:50:45;13.35;;;5.93;;
79578;SDS011;69051;52.406;5.280;2023-08-30T02:53:11;11.95;;;5.65;;
79578;SDS011;69051;52.406;5.280;2023-08-30T02:55:38;13.60;;;5.55;;
79578;SDS011;69051;52.406;5.280;2023-08-30T02:58:04;13.50;;;5.93;;
79578;SDS011;69051;52.406;5.280;2023-08-30T03:00:31;12.20;;;5.95;;
79578;SDS011;69051;52.406;5.280;2023-08-30T03:02:57;13.80;;;6.50;;
79578;SDS011;69051;52.406;5.280;2023-08-30T03:05:24;10.20;;;5.22;;
79578;SDS011;69051;52.406;5.280;2023-08-30T03:07:50;10.43;;;5.35;;
79578;SDS011;69051;52.406;5.280;2023-08-30T03:10:17;13.18;;;5.55;;
79578;SDS011;69051;52.406;5.280;2023-08-30T03:12:43;14.13;;;6.07;;
79578;SDS011;69051;52.406;5.280;2023-08-30T03:15:10;11.40;;;4.97;;
79578;SDS011;69051;52.406;5.280;2023-08-30T03:17:37;16.70;;;6.80;;
79578;SDS011;69051;52.406;5.280;2023-08-30T03:20:03;18.10;;;6.45;;
79578;SDS011;69051;52.406;5.280;2023-08-30T03:22:31;11.95;;;5.75;;
79578;SDS011;69051;52.406;5.280;2023-08-30T03:24:58;11.75;;;5.70;;
79578;SDS011;69051;52.406;5.280;2023-08-30T03:27:25;19.38;;;6.22;;
79578;SDS011;69051;52.406;5.280;2023-08-30T03:29:51;12.73;;;6.13;;
79578;SDS011;69051;52.406;5.280;2023-08-30T03:32:18;16.02;;;6.53;;
79578;SDS011;69051;52.406;5.280;2023-08-30T03:34:44;16.75;;;7.80;;
79578;SDS011;69051;52.406;5.280;2023-08-30T03:37:13;16.10;;;7.18;;
79578;SDS011;69051;52.406;5.280;2023-08-30T03:39:40;14.95;;;7.57;;
79578;SDS011;69051;52.406;5.280;2023-08-30T03:42:07;13.38;;;6.25;;
79578;SDS011;69051;52.406;5.280;2023-08-30T03:44:33;16.80;;;6.88;;
79578;SDS011;69051;52.406;5.280;2023-08-30T03:47:04;13.13;;;7.07;;
79578;SDS011;69051;52.406;5.280;2023-08-30T03:49:30;16.30;;;7.15;;
79578;SDS011;69051;52.406;5.280;2023-08-30T03:51:57;15.63;;;7.88;;
79578;SDS011;69051;52.406;5.280;2023-08-30T03:54:23;14.98;;;7.15;;
79578;SDS011;69051;52.406;5.280;2023-08-30T03:56:50;16.17;;;7.75;;
79578;SDS011;69051;52.406;5.280;2023-08-30T03:59:16;18.58;;;7.65;;
79578;SDS011;69051;52.406;5.280;2023-08-30T04:01:43;15.93;;;7.03;;
79578;SDS011;69051;52.406;5.280;2023-08-30T04:04:10;15.07;;;7.80;;
79578;SDS011;69051;52.406;5.280;2023-08-30T04:06:37;18.60;;;7.53;;
79578;SDS011;69051;52.406;5.280;2023-08-30T04:09:04;14.23;;;7.30;;
79578;SDS011;69051;52.406;5.280;2023-08-30T04:11:30;15.13;;;7.30;;
79578;SDS011;69051;52.406;5.280;2023-08-30T04:13:57;14.55;;;7.32;;
79578;SDS011;69051;52.406;5.280;2023-08-30T04:16:23;19.33;;;9.00;;
79578;SDS011;69051;52.406;5.280;2023-08-30T04:18:50;17.13;;;8.63;;
79578;SDS011;69051;52.406;5.280;2023-08-30T04:21:16;19.35;;;9.20;;
79578;SDS011;69051;52.406;5.280;2023-08-30T04:23:43;15.25;;;8.32;;
79578;SDS011;69051;52.406;5.280;2023-08-30T04:26:09;20.60;;;8.65;;
79578;SDS011;69051;52.406;5.280;2023-08-30T04:28:35;17.58;;;9.38;;
79578;SDS011;69051;52.406;5.280;2023-08-30T04:31:02;19.55;;;9.63;;
79578;SDS011;69051;52.406;5.280;2023-08-30T04:33:28;20.92;;;9.48;;
79578;SDS011;69051;52.406;5.280;2023-08-30T04:35:55;19.42;;;9.45;;
79578;SDS011;69051;52.406;5.280;2023-08-30T04:38:21;17.88;;;9.20;;
79578;SDS011;69051;52.406;5.280;2023-08-30T04:40:48;21.13;;;10.60;;
79578;SDS011;69051;52.406;5.280;2023-08-30T04:43:14;20.23;;;10.30;;
79578;SDS011;69051;52.406;5.280;2023-08-30T04:45:41;21.38;;;10.52;;
79578;SDS011;69051;52.406;5.280;2023-08-30T04:48:09;22.60;;;11.38;;
79578;SDS011;69051;52.406;5.280;2023-08-30T04:50:36;19.88;;;10.98;;
79578;SDS011;69051;52.406;5.280;2023-08-30T04:53:03;22.17;;;10.77;;
79578;SDS011;69051;52.406;5.280;2023-08-30T04:55:30;20.02;;;10.40;;
79578;SDS011;69051;52.406;5.280;2023-08-30T04:57:56;21.33;;;10.82;;
79578;SDS011;69051;52.406;5.280;2023-08-30T05:00:23;21.80;;;10.43;;
79578;SDS011;69051;52.406;5.280;2023-08-30T05:02:50;20.27;;;9.85;;
79578;SDS011;69051;52.406;5.280;2023-08-30T05:05:17;21.10;;;10.52;;
79578;SDS011;69051;52.406;5.280;2023-08-30T05:07:43;19.95;;;10.25;;
79578;SDS011;69051;52.406;5.280;2023-08-30T05:10:10;22.00;;;10.50;;
79578;SDS011;69051;52.406;5.280;2023-08-30T05:12:36;18.63;;;10.45;;
79578;SDS011;69051;52.406;5.280;2023-08-30T05:15:03;21.50;;;10.80;;
79578;SDS011;69051;52.406;5.280;2023-08-30T05:17:31;22.75;;;10.48;;
79578;SDS011;69051;52.406;5.280;2023-08-30T05:19:57;22.25;;;9.75;;
79578;SDS011;69051;52.406;5.280;2023-08-30T05:22:24;19.38;;;9.70;;
79578;SDS011;69051;52.406;5.280;2023-08-30T05:24:50;22.17;;;10.13;;
79578;SDS011;69051;52.406;5.280;2023-08-30T05:27:17;20.88;;;11.20;;
79578;SDS011;69051;52.406;5.280;2023-08-30T05:29:44;19.52;;;9.60;;
79578;SDS011;69051;52.406;5.280;2023-08-30T05:32:10;19.88;;;9.60;;
79578;SDS011;69051;52.406;5.280;2023-08-30T05:34:37;23.10;;;9.30;;
79578;SDS011;69051;52.406;5.280;2023-08-30T05:37:03;20.55;;;9.43;;
79578;SDS011;69051;52.406;5.280;2023-08-30T05:39:30;20.77;;;9.50;;
79578;SDS011;69051;52.406;5.280;2023-08-30T05:41:56;19.30;;;9.90;;
79578;SDS011;69051;52.406;5.280;2023-08-30T05:44:23;18.63;;;8.90;;
79578;SDS011;69051;52.406;5.280;2023-08-30T05:46:49;18.23;;;8.93;;
79578;SDS011;69051;52.406;5.280;2023-08-30T05:49:16;19.38;;;7.95;;
79578;SDS011;69051;52.406;5.280;2023-08-30T05:51:42;23.40;;;8.27;;
79578;SDS011;69051;52.406;5.280;2023-08-30T05:54:09;18.42;;;8.27;;
79578;SDS011;69051;52.406;5.280;2023-08-30T05:56:36;20.48;;;7.85;;
79578;SDS011;69051;52.406;5.280;2023-08-30T05:59:03;22.27;;;8.18;;
79578;SDS011;69051;52.406;5.280;2023-08-30T06:01:29;22.20;;;7.38;;
79578;SDS011;69051;52.406;5.280;2023-08-30T06:03:56;16.85;;;7.63;;
79578;SDS011;69051;52.406;5.280;2023-08-30T06:06:22;17.73;;;7.93;;
79578;SDS011;69051;52.406;5.280;2023-08-30T06:08:49;14.85;;;7.03;;
79578;SDS011;69051;52.406;5.280;2023-08-30T06:11:15;16.20;;;7.35;;
79578;SDS011;69051;52.406;5.280;2023-08-30T06:13:42;15.00;;;6.72;;
79578;SDS011;69051;52.406;5.280;2023-08-30T06:16:08;17.55;;;7.25;;
79578;SDS011;69051;52.406;5.280;2023-08-30T06:18:35;14.60;;;6.68;;
79578;SDS011;69051;52.406;5.280;2023-08-30T06:21:03;14.40;;;6.60;;
79578;SDS011;69051;52.406;5.280;2023-08-30T06:23:30;16.25;;;7.53;;
79578;SDS011;69051;52.406;5.280;2023-08-30T06:25:59;15.68;;;7.15;;
79578;SDS011;69051;52.406;5.280;2023-08-30T06:28:26;13.50;;;6.80;;
79578;SDS011;69051;52.406;5.280;2023-08-30T06:30:53;15.55;;;6.50;;
79578;SDS011;69051;52.406;5.280;2023-08-30T06:33:19;14.55;;;7.65;;
79578;SDS011;69051;52.406;5.280;2023-08-30T06:35:49;15.77;;;6.90;;
79578;SDS011;69051;52.406;5.280;2023-08-30T06:38:19;13.15;;;6.53;;
79578;SDS011;69051;52.406;5.280;2023-08-30T06:40:46;17.17;;;7.13;;
79578;SDS011;69051;52.406;5.280;2023-08-30T06:43:13;16.45;;;7.93;;
79578;SDS011;69051;52.406;5.280;2023-08-30T06:45:39;17.08;;;7.95;;
79578;SDS011;69051;52.406;5.280;2023-08-30T06:48:06;16.45;;;8.18;;
79578;SDS011;69051;52.406;5.280;2023-08-30T06:50:34;20.80;;;7.45;;
79578;SDS011;69051;52.406;5.280;2023-08-30T06:53:01;19.98;;;7.82;;
79578;SDS011;69051;52.406;5.280;2023-08-30T06:55:29;17.25;;;7.93;;
79578;SDS011;69051;52.406;5.280;2023-08-30T06:57:55;22.23;;;9.13;;
79578;SDS011;69051;52.406;5.280;2023-08-30T07:00:22;20.50;;;9.05;;
79578;SDS011;69051;52.406;5.280;2023-08-30T07:02:48;21.48;;;9.15;;
79578;SDS011;69051;52.406;5.280;2023-08-30T07:05:15;19.08;;;9.23;;
79578;SDS011;69051;52.406;5.280;2023-08-30T07:07:41;22.05;;;9.73;;
79578;SDS011;69051;52.406;5.280;2023-08-30T07:10:08;18.10;;;9.07;;
79578;SDS011;69051;52.406;5.280;2023-08-30T07:12:35;19.30;;;8.93;;
79578;SDS011;69051;52.406;5.280;2023-08-30T07:15:01;24.45;;;8.75;;
79578;SDS011;69051;52.406;5.280;2023-08-30T07:17:29;23.73;;;9.65;;
79578;SDS011;69051;52.406;5.280;2023-08-30T07:20:16;19.65;;;9.63;;
79578;SDS011;69051;52.406;5.280;2023-08-30T07:22:43;18.80;;;9.45;;
79578;SDS011;69051;52.406;5.280;2023-08-30T07:25:09;20.50;;;9.65;;
79578;SDS011;69051;52.406;5.280;2023-08-30T07:27:36;20.88;;;10.00;;
79578;SDS011;69051;52.406;5.280;2023-08-30T07:30:03;17.67;;;8.73;;
79578;SDS011;69051;52.406;5.280;2023-08-30T07:32:30;23.30;;;9.48;;
79578;SDS011;69051;52.406;5.280;2023-08-30T07:34:56;20.73;;;9.10;;
79578;SDS011;69051;52.406;5.280;2023-08-30T07:37:23;21.45;;;8.85;;
79578;SDS011;69051;52.406;5.280;2023-08-30T07:39:50;17.70;;;8.18;;
79578;SDS011;69051;52.406;5.280;2023-08-30T07:42:17;19.00;;;8.18;;
79578;SDS011;69051;52.406;5.280;2023-08-30T07:44:43;21.00;;;9.05;;
79578;SDS011;69051;52.406;5.280;2023-08-30T07:47:10;17.83;;;8.23;;
79578;SDS011;69051;52.406;5.280;2023-08-30T07:49:36;18.73;;;8.10;;
79578;SDS011;69051;52.406;5.280;2023-08-30T07:52:03;16.73;;;6.82;;
79578;SDS011;69051;52.406;5.280;2023-08-30T07:54:30;19.25;;;8.52;;
79578;SDS011;69051;52.406;5.280;2023-08-30T07:56:57;17.35;;;8.75;;
79578;SDS011;69051;52.406;5.280;2023-08-30T07:59:23;21.05;;;8.30;;
79578;SDS011;69051;52.406;5.280;2023-08-30T08:01:50;16.55;;;7.20;;
79578;SDS011;69051;52.406;5.280;2023-08-30T08:04:17;17.95;;;8.13;;
79578;SDS011;69051;52.406;5.280;2023-08-30T08:06:44;14.82;;;7.13;;
79578;SDS011;69051;52.406;5.280;2023-08-30T08:09:22;16.42;;;7.80;;
79578;SDS011;69051;52.406;5.280;2023-08-30T08:11:48;16.85;;;7.57;;
79578;SDS011;69051;52.406;5.280;2023-08-30T08:14:15;15.05;;;7.18;;
79578;SDS011;69051;52.406;5.280;2023-08-30T08:16:42;14.80;;;7.10;;
79578;SDS011;69051;52.406;5.280;2023-08-30T08:19:09;19.13;;;7.63;;
79578;SDS011;69051;52.406;5.280;2023-08-30T08:21:35;19.23;;;7.60;;
79578;SDS011;69051;52.406;5.280;2023-08-30T08:24:02;16.27;;;7.75;;
79578;SDS011;69051;52.406;5.280;2023-08-30T08:26:28;16.25;;;7.95;;
79578;SDS011;69051;52.406;5.280;2023-08-30T08:28:55;16.38;;;7.88;;
79578;SDS011;69051;52.406;5.280;2023-08-30T08:31:22;16.98;;;7.03;;
79578;SDS011;69051;52.406;5.280;2023-08-30T08:34:05;11.35;;;5.93;;
79578;SDS011;69051;52.406;5.280;2023-08-30T08:36:42;13.77;;;6.88;;
79578;SDS011;69051;52.406;5.280;2023-08-30T08:39:08;16.20;;;7.00;;
79578;SDS011;69051;52.406;5.280;2023-08-30T08:41:39;13.73;;;6.88;;
79578;SDS011;69051;52.406;5.280;2023-08-30T08:46:35;11.25;;;5.57;;
79578;SDS011;69051;52.406;5.280;2023-08-30T08:49:05;11.27;;;5.50;;
79578;SDS011;69051;52.406;5.280;2023-08-30T08:51:35;11.38;;;4.63;;
79578;SDS011;69051;52.406;5.280;2023-08-30T08:54:04;10.15;;;4.88;;
79578;SDS011;69051;52.406;5.280;2023-08-30T08:56:32;10.45;;;4.82;;
79578;SDS011;69051;52.406;5.280;2023-08-30T08:59:00;9.60;;;4.85;;
79578;SDS011;69051;52.406;5.280;2023-08-30T09:01:27;9.65;;;4.97;;
79578;SDS011;69051;52.406;5.280;2023-08-30T09:04:05;9.23;;;4.20;;
79578;SDS011;69051;52.406;5.280;2023-08-30T09:06:36;9.40;;;4.55;;
79578;SDS011;69051;52.406;5.280;2023-08-30T09:09:03;10.70;;;4.75;;
79578;SDS011;69051;52.406;5.280;2023-08-30T09:11:30;9.30;;;4.03;;
79578;SDS011;69051;52.406;5.280;2023-08-30T09:14:15;9.23;;;4.15;;
79578;SDS011;69051;52.406;5.280;2023-08-30T09:16:43;8.68;;;4.10;;
79578;SDS011;69051;52.406;5.280;2023-08-30T09:19:09;11.18;;;4.28;;
79578;SDS011;69051;52.406;5.280;2023-08-30T09:21:36;8.73;;;4.10;;
79578;SDS011;69051;52.406;5.280;2023-08-30T09:24:04;8.00;;;3.78;;
79578;SDS011;69051;52.406;5.280;2023-08-30T09:26:32;11.73;;;4.85;;
79578;SDS011;69051;52.406;5.280;2023-08-30T09:29:03;11.88;;;4.13;;
79578;SDS011;69051;52.406;5.280;2023-08-30T09:31:33;8.50;;;4.15;;
79578;SDS011;69051;52.406;5.280;2023-08-30T09:34:00;10.82;;;4.65;;
79578;SDS011;69051;52.406;5.280;2023-08-30T09:36:37;10.43;;;4.13;;
79578;SDS011;69051;52.406;5.280;2023-08-30T09:39:07;9.05;;;4.68;;
79578;SDS011;69051;52.406;5.280;2023-08-30T09:41:36;10.00;;;4.30;;
79578;SDS011;69051;52.406;5.280;2023-08-30T09:44:06;11.77;;;4.53;;
79578;SDS011;69051;52.406;5.280;2023-08-30T09:46:41;10.77;;;4.88;;
79578;SDS011;69051;52.406;5.280;2023-08-30T09:49:18;8.88;;;4.32;;
79578;SDS011;69051;52.406;5.280;2023-08-30T09:51:54;9.88;;;4.97;;
79578;SDS011;69051;52.406;5.280;2023-08-30T09:54:22;9.27;;;4.75;;
79578;SDS011;69051;52.406;5.280;2023-08-30T09:56:52;10.65;;;4.97;;
79578;SDS011;69051;52.406;5.280;2023-08-30T09:59:21;11.20;;;4.85;;
79578;SDS011;69051;52.406;5.280;2023-08-30T10:01:48;10.38;;;5.32;;
79578;SDS011;69051;52.406;5.280;2023-08-30T10:04:16;10.68;;;5.20;;
79578;SDS011;69051;52.406;5.280;2023-08-30T10:06:45;11.50;;;5.63;;
79578;SDS011;69051;52.406;5.280;2023-08-30T10:09:13;11.23;;;5.72;;
79578;SDS011;69051;52.406;5.280;2023-08-30T10:11:45;10.38;;;5.57;;
79578;SDS011;69051;52.406;5.280;2023-08-30T10:14:12;12.15;;;5.78;;
79578;SDS011;69051;52.406;5.280;2023-08-30T10:16:43;10.52;;;5.28;;
79578;SDS011;69051;52.406;5.280;2023-08-30T10:21:43;8.18;;;4.45;;
79578;SDS011;69051;52.406;5.280;2023-08-30T10:24:11;11.07;;;5.68;;
79578;SDS011;69051;52.406;5.280;2023-08-30T10:26:57;11.10;;;5.40;;
79578;SDS011;69051;52.406;5.280;2023-08-30T10:29:26;10.38;;;5.38;;
79578;SDS011;69051;52.406;5.280;2023-08-30T10:31:54;10.00;;;5.45;;
79578;SDS011;69051;52.406;5.280;2023-08-30T10:34:20;10.35;;;5.13;;
79578;SDS011;69051;52.406;5.280;2023-08-30T10:36:58;8.68;;;4.57;;
79578;SDS011;69051;52.406;5.280;2023-08-30T10:42:00;8.00;;;3.65;;
79578;SDS011;69051;52.406;5.280;2023-08-30T10:44:27;6.45;;;3.22;;
79578;SDS011;69051;52.406;5.280;2023-08-30T10:46:53;7.75;;;3.15;;
79578;SDS011;69051;52.406;5.280;2023-08-30T10:49:21;6.50;;;3.30;;
79578;SDS011;69051;52.406;5.280;2023-08-30T10:51:57;8.25;;;3.47;;
79578;SDS011;69051;52.406;5.280;2023-08-30T10:54:24;8.13;;;2.83;;
79578;SDS011;69051;52.406;5.280;2023-08-30T10:59:21;10.73;;;2.50;;
79578;SDS011;69051;52.406;5.280;2023-08-30T11:01:49;7.43;;;2.42;;
79578;SDS011;69051;52.406;5.280;2023-08-30T11:04:19;11.70;;;2.78;;
79578;SDS011;69051;52.406;5.280;2023-08-30T11:06:49;7.60;;;2.38;;
79578;SDS011;69051;52.406;5.280;2023-08-30T11:09:18;7.25;;;2.15;;
79578;SDS011;69051;52.406;5.280;2023-08-30T11:11:48;11.55;;;2.55;;
79578;SDS011;69051;52.406;5.280;2023-08-30T11:14:16;11.63;;;2.92;;
79578;SDS011;69051;52.406;5.280;2023-08-30T11:16:43;10.57;;;2.80;;
79578;SDS011;69051;52.406;5.280;2023-08-30T11:19:10;10.80;;;2.83;;
79578;SDS011;69051;52.406;5.280;2023-08-30T11:21:38;11.23;;;2.70;;
79578;SDS011;69051;52.406;5.280;2023-08-30T11:24:06;9.55;;;2.08;;
79578;SDS011;69051;52.406;5.280;2023-08-30T11:26:33;13.65;;;2.42;;
79578;SDS011;69051;52.406;5.280;2023-08-30T11:29:08;9.75;;;2.42;;
79578;SDS011;69051;52.406;5.280;2023-08-30T11:31:35;9.13;;;2.13;;
79578;SDS011;69051;52.406;5.280;2023-08-30T11:34:02;6.93;;;1.85;;
79578;SDS011;69051;52.406;5.280;2023-08-30T11:36:30;7.72;;;1.95;;
79578;SDS011;69051;52.406;5.280;2023-08-30T11:38:57;11.07;;;2.65;;
79578;SDS011;69051;52.406;5.280;2023-08-30T11:41:24;10.35;;;2.33;;
79578;SDS011;69051;52.406;5.280;2023-08-30T11:43:51;7.55;;;1.92;;
79578;SDS011;69051;52.406;5.280;2023-08-30T11:46:19;7.53;;;1.63;;
79578;SDS011;69051;52.406;5.280;2023-08-30T11:48:47;5.35;;;1.70;;
79578;SDS011;69051;52.406;5.280;2023-08-30T11:51:14;8.88;;;1.88;;
79578;SDS011;69051;52.406;5.280;2023-08-30T11:53:41;9.57;;;2.10;;
79578;SDS011;69051;52.406;5.280;2023-08-30T11:56:08;9.75;;;2.72;;
79578;SDS011;69051;52.406;5.280;2023-08-30T11:58:35;14.93;;;2.13;;
79578;SDS011;69051;52.406;5.280;2023-08-30T12:01:06;6.68;;;1.73;;
79578;SDS011;69051;52.406;5.280;2023-08-30T12:03:33;9.35;;;2.10;;
79578;SDS011;69051;52.406;5.280;2023-08-30T12:06:00;8.02;;;2.10;;
79578;SDS011;69051;52.406;5.280;2023-08-30T12:08:31;12.25;;;1.95;;
79578;SDS011;69051;52.406;5.280;2023-08-30T12:10:57;11.80;;;2.03;;
79578;SDS011;69051;52.406;5.280;2023-08-30T12:15:51;9.20;;;1.58;;
79578;SDS011;69051;52.406;5.280;2023-08-30T12:18:22;10.27;;;1.42;;
79578;SDS011;69051;52.406;5.280;2023-08-30T12:20:56;8.25;;;2.00;;
79578;SDS011;69051;52.406;5.280;2023-08-30T12:23:24;10.52;;;1.60;;
79578;SDS011;69051;52.406;5.280;2023-08-30T12:25:58;15.52;;;2.30;;
79578;SDS011;69051;52.406;5.280;2023-08-30T12:28:31;7.47;;;1.80;;
79578;SDS011;69051;52.406;5.280;2023-08-30T12:30:58;12.98;;;2.53;;
79578;SDS011;69051;52.406;5.280;2023-08-30T12:33:27;7.65;;;1.63;;
79578;SDS011;69051;52.406;5.280;2023-08-30T12:35:55;8.48;;;2.00;;
79578;SDS011;69051;52.406;5.280;2023-08-30T12:38:22;11.35;;;1.80;;
79578;SDS011;69051;52.406;5.280;2023-08-30T12:40:49;8.02;;;1.70;;
79578;SDS011;69051;52.406;5.280;2023-08-30T12:43:18;8.95;;;1.60;;
79578;SDS011;69051;52.406;5.280;2023-08-30T12:45:46;7.93;;;1.85;;
79578;SDS011;69051;52.406;5.280;2023-08-30T12:48:14;12.05;;;1.80;;
79578;SDS011;69051;52.406;5.280;2023-08-30T12:50:42;10.38;;;2.17;;
79578;SDS011;69051;52.406;5.280;2023-08-30T12:53:10;9.35;;;1.48;;
79578;SDS011;69051;52.406;5.280;2023-08-30T12:55:37;10.65;;;1.83;;
79578;SDS011;69051;52.406;5.280;2023-08-30T12:58:06;5.72;;;1.45;;
79578;SDS011;69051;52.406;5.280;2023-08-30T13:00:33;8.65;;;1.52;;
79578;SDS011;69051;52.406;5.280;2023-08-30T13:03:01;8.43;;;1.40;;
79578;SDS011;69051;52.406;5.280;2023-08-30T13:05:29;10.52;;;1.80;;
79578;SDS011;69051;52.406;5.280;2023-08-30T13:07:58;13.18;;;1.42;;
79578;SDS011;69051;52.406;5.280;2023-08-30T13:10:25;6.82;;;1.15;;
79578;SDS011;69051;52.406;5.280;2023-08-30T13:12:52;9.40;;;1.75;;
79578;SDS011;69051;52.406;5.280;2023-08-30T13:15:18;4.75;;;1.38;;
79578;SDS011;69051;52.406;5.280;2023-08-30T13:17:45;8.18;;;2.22;;
79578;SDS011;69051;52.406;5.280;2023-08-30T13:20:11;5.93;;;1.40;;
79578;SDS011;69051;52.406;5.280;2023-08-30T13:22:38;5.40;;;1.48;;
79578;SDS011;69051;52.406;5.280;2023-08-30T13:25:05;9.88;;;1.45;;
79578;SDS011;69051;52.406;5.280;2023-08-30T13:27:32;6.32;;;1.20;;
79578;SDS011;69051;52.406;5.280;2023-08-30T13:29:58;5.60;;;1.13;;
79578;SDS011;69051;52.406;5.280;2023-08-30T13:32:25;7.38;;;1.48;;
79578;SDS011;69051;52.406;5.280;2023-08-30T13:34:51;10.35;;;1.73;;
79578;SDS011;69051;52.406;5.280;2023-08-30T13:37:18;5.65;;;0.98;;
79578;SDS011;69051;52.406;5.280;2023-08-30T13:39:44;6.63;;;1.23;;
79578;SDS011;69051;52.406;5.280;2023-08-30T13:42:12;6.45;;;1.60;;
79578;SDS011;69051;52.406;5.280;2023-08-30T13:44:38;9.93;;;1.60;;
79578;SDS011;69051;52.406;5.280;2023-08-30T13:47:05;7.13;;;1.45;;
79578;SDS011;69051;52.406;5.280;2023-08-30T13:49:31;7.68;;;1.60;;
79578;SDS011;69051;52.406;5.280;2023-08-30T13:51:58;8.02;;;2.00;;
79578;SDS011;69051;52.406;5.280;2023-08-30T13:54:25;7.35;;;1.48;;
79578;SDS011;69051;52.406;5.280;2023-08-30T13:56:52;4.28;;;1.13;;
79578;SDS011;69051;52.406;5.280;2023-08-30T13:59:18;10.13;;;1.83;;
79578;SDS011;69051;52.406;5.280;2023-08-30T14:01:46;8.05;;;1.42;;
79578;SDS011;69051;52.406;5.280;2023-08-30T14:04:12;5.68;;;1.20;;
79578;SDS011;69051;52.406;5.280;2023-08-30T14:06:39;7.00;;;1.45;;
79578;SDS011;69051;52.406;5.280;2023-08-30T14:09:06;4.72;;;1.38;;
79578;SDS011;69051;52.406;5.280;2023-08-30T14:11:34;5.65;;;1.20;;
79578;SDS011;69051;52.406;5.280;2023-08-30T14:14:02;6.20;;;1.30;;
79578;SDS011;69051;52.406;5.280;2023-08-30T14:16:29;4.75;;;1.35;;
79578;SDS011;69051;52.406;5.280;2023-08-30T14:18:55;8.35;;;1.80;;
79578;SDS011;69051;52.406;5.280;2023-08-30T14:21:26;6.32;;;1.70;;
79578;SDS011;69051;52.406;5.280;2023-08-30T14:23:53;4.57;;;1.30;;
79578;SDS011;69051;52.406;5.280;2023-08-30T14:26:20;9.60;;;1.25;;
79578;SDS011;69051;52.406;5.280;2023-08-30T14:28:46;4.15;;;1.25;;
79578;SDS011;69051;52.406;5.280;2023-08-30T14:31:13;7.55;;;1.88;;
79578;SDS011;69051;52.406;5.280;2023-08-30T14:33:42;4.53;;;1.10;;
79578;SDS011;69051;52.406;5.280;2023-08-30T14:36:11;6.65;;;1.48;;
79578;SDS011;69051;52.406;5.280;2023-08-30T14:38:38;6.80;;;1.30;;
79578;SDS011;69051;52.406;5.280;2023-08-30T14:41:05;6.47;;;1.52;;
79578;SDS011;69051;52.406;5.280;2023-08-30T14:43:31;4.07;;;1.10;;
79578;SDS011;69051;52.406;5.280;2023-08-30T14:46:01;4.15;;;1.20;;
79578;SDS011;69051;52.406;5.280;2023-08-30T14:48:37;5.28;;;1.45;;
79578;SDS011;69051;52.406;5.280;2023-08-30T14:51:04;4.20;;;1.05;;
79578;SDS011;69051;52.406;5.280;2023-08-30T14:53:31;4.45;;;1.00;;
79578;SDS011;69051;52.406;5.280;2023-08-30T14:55:57;6.63;;;1.45;;
79578;SDS011;69051;52.406;5.280;2023-08-30T14:58:24;4.28;;;1.10;;